sensor_id;sensor_type;location;lat;lon;timestamp;P1;durP1;ratioP1;P2;durP2;ratioP2
17890;SDS011;9071;48.220;14.480;2023-05-08T00:02:20;17.73;;;11.47;;
17890;SDS011;9071;48.220;14.480;2023-05-08T00:07:22;19.00;;;11.67;;
17890;SDS011;9071;48.220;14.480;2023-05-08T00:12:25;18.53;;;12.47;;
17890;SDS011;9071;48.220;14.480;2023-05-08T00:17:27;17.07;;;11.77;;
17890;SDS011;9071;48.220;14.480;2023-05-08T00:22:30;18.63;;;12.33;;
17890;SDS011;9071;48.220;14.480;2023-05-08T00:27:33;17.67;;;11.77;;
17890;SDS011;9071;48.220;14.480;2023-05-08T00:32:35;17.80;;;12.33;;
17890;SDS011;9071;48.220;14.480;2023-05-08T00:37:37;18.33;;;12.53;;
17890;SDS011;9071;48.220;14.480;2023-05-08T00:42:41;18.70;;;11.77;;
17890;SDS011;9071;48.220;14.480;2023-05-08T00:47:43;19.13;;;12.50;;
17890;SDS011;9071;48.220;14.480;2023-05-08T00:52:45;17.50;;;12.13;;
17890;SDS011;9071;48.220;14.480;2023-05-08T00:57:49;18.73;;;12.30;;
17890;SDS011;9071;48.220;14.480;2023-05-08T01:02:52;16.57;;;11.73;;
17890;SDS011;9071;48.220;14.480;2023-05-08T01:07:55;16.27;;;11.40;;
17890;SDS011;9071;48.220;14.480;2023-05-08T01:13:01;16.87;;;11.23;;
17890;SDS011;9071;48.220;14.480;2023-05-08T01:18:10;16.87;;;11.83;;
17890;SDS011;9071;48.220;14.480;2023-05-08T01:29:25;20.07;;;12.90;;
17890;SDS011;9071;48.220;14.480;2023-05-08T01:34:45;19.33;;;12.87;;
17890;SDS011;9071;48.220;14.480;2023-05-08T01:40:01;17.53;;;12.37;;
17890;SDS011;9071;48.220;14.480;2023-05-08T01:45:11;17.63;;;12.17;;
17890;SDS011;9071;48.220;14.480;2023-05-08T01:50:22;17.10;;;11.73;;
17890;SDS011;9071;48.220;14.480;2023-05-08T01:55:33;17.77;;;12.27;;
17890;SDS011;9071;48.220;14.480;2023-05-08T02:00:38;16.57;;;11.40;;
17890;SDS011;9071;48.220;14.480;2023-05-08T02:05:43;18.80;;;11.60;;
17890;SDS011;9071;48.220;14.480;2023-05-08T02:10:46;16.43;;;11.13;;
17890;SDS011;9071;48.220;14.480;2023-05-08T02:15:51;15.83;;;10.80;;
17890;SDS011;9071;48.220;14.480;2023-05-08T02:20:56;16.90;;;11.87;;
17890;SDS011;9071;48.220;14.480;2023-05-08T02:26:02;14.77;;;10.93;;
17890;SDS011;9071;48.220;14.480;2023-05-08T02:31:06;14.30;;;9.73;;
17890;SDS011;9071;48.220;14.480;2023-05-08T02:36:12;15.30;;;11.13;;
17890;SDS011;9071;48.220;14.480;2023-05-08T02:41:17;16.20;;;10.87;;
17890;SDS011;9071;48.220;14.480;2023-05-08T02:46:23;15.20;;;10.70;;
17890;SDS011;9071;48.220;14.480;2023-05-08T02:51:32;13.30;;;9.87;;
17890;SDS011;9071;48.220;14.480;2023-05-08T02:56:46;14.37;;;10.30;;
17890;SDS011;9071;48.220;14.480;2023-05-08T03:01:58;15.33;;;9.97;;
17890;SDS011;9071;48.220;14.480;2023-05-08T03:07:08;13.87;;;9.73;;
17890;SDS011;9071;48.220;14.480;2023-05-08T03:12:11;13.37;;;9.87;;
17890;SDS011;9071;48.220;14.480;2023-05-08T03:17:15;12.73;;;9.50;;
17890;SDS011;9071;48.220;14.480;2023-05-08T03:22:20;12.17;;;9.07;;
17890;SDS011;9071;48.220;14.480;2023-05-08T03:27:24;13.77;;;8.90;;
17890;SDS011;9071;48.220;14.480;2023-05-08T03:32:29;13.13;;;9.10;;
17890;SDS011;9071;48.220;14.480;2023-05-08T03:37:34;12.63;;;9.47;;
17890;SDS011;9071;48.220;14.480;2023-05-08T03:42:37;12.23;;;9.53;;
17890;SDS011;9071;48.220;14.480;2023-05-08T03:47:41;13.23;;;8.60;;
17890;SDS011;9071;48.220;14.480;2023-05-08T03:52:46;12.37;;;8.73;;
17890;SDS011;9071;48.220;14.480;2023-05-08T03:57:49;13.23;;;8.63;;
17890;SDS011;9071;48.220;14.480;2023-05-08T04:03:01;13.23;;;8.83;;
17890;SDS011;9071;48.220;14.480;2023-05-08T04:08:16;11.77;;;8.87;;
17890;SDS011;9071;48.220;14.480;2023-05-08T04:13:23;11.53;;;8.87;;
17890;SDS011;9071;48.220;14.480;2023-05-08T04:18:28;11.77;;;8.20;;
17890;SDS011;9071;48.220;14.480;2023-05-08T04:23:34;12.00;;;8.73;;
17890;SDS011;9071;48.220;14.480;2023-05-08T04:28:39;12.20;;;8.17;;
17890;SDS011;9071;48.220;14.480;2023-05-08T04:33:41;11.07;;;8.80;;
17890;SDS011;9071;48.220;14.480;2023-05-08T04:38:46;13.50;;;8.43;;
17890;SDS011;9071;48.220;14.480;2023-05-08T04:43:48;13.40;;;8.83;;
17890;SDS011;9071;48.220;14.480;2023-05-08T04:48:50;10.97;;;8.60;;
17890;SDS011;9071;48.220;14.480;2023-05-08T04:53:54;11.57;;;9.10;;
17890;SDS011;9071;48.220;14.480;2023-05-08T04:58:56;10.53;;;8.43;;
17890;SDS011;9071;48.220;14.480;2023-05-08T05:03:58;10.63;;;8.37;;
17890;SDS011;9071;48.220;14.480;2023-05-08T05:09:01;12.00;;;8.57;;
17890;SDS011;9071;48.220;14.480;2023-05-08T05:14:04;11.60;;;8.70;;
17890;SDS011;9071;48.220;14.480;2023-05-08T05:19:06;11.73;;;8.67;;
17890;SDS011;9071;48.220;14.480;2023-05-08T05:24:09;12.27;;;9.10;;
17890;SDS011;9071;48.220;14.480;2023-05-08T05:29:12;12.23;;;9.30;;
17890;SDS011;9071;48.220;14.480;2023-05-08T05:34:14;12.40;;;8.90;;
17890;SDS011;9071;48.220;14.480;2023-05-08T05:39:17;13.67;;;9.43;;
17890;SDS011;9071;48.220;14.480;2023-05-08T05:44:19;15.13;;;9.40;;
17890;SDS011;9071;48.220;14.480;2023-05-08T05:49:21;13.37;;;9.77;;
17890;SDS011;9071;48.220;14.480;2023-05-08T05:54:25;12.57;;;8.50;;
17890;SDS011;9071;48.220;14.480;2023-05-08T05:59:27;11.40;;;8.20;;
17890;SDS011;9071;48.220;14.480;2023-05-08T06:04:29;12.97;;;8.40;;
17890;SDS011;9071;48.220;14.480;2023-05-08T06:09:32;14.90;;;9.93;;
17890;SDS011;9071;48.220;14.480;2023-05-08T06:14:35;13.30;;;9.70;;
17890;SDS011;9071;48.220;14.480;2023-05-08T06:19:37;13.10;;;10.03;;
17890;SDS011;9071;48.220;14.480;2023-05-08T06:24:41;15.97;;;11.23;;
17890;SDS011;9071;48.220;14.480;2023-05-08T06:29:43;13.57;;;9.90;;
17890;SDS011;9071;48.220;14.480;2023-05-08T06:34:45;14.33;;;10.20;;
17890;SDS011;9071;48.220;14.480;2023-05-08T06:39:49;17.73;;;11.27;;
17890;SDS011;9071;48.220;14.480;2023-05-08T06:44:51;14.60;;;11.07;;
17890;SDS011;9071;48.220;14.480;2023-05-08T06:49:53;15.77;;;11.27;;
17890;SDS011;9071;48.220;14.480;2023-05-08T06:54:57;15.77;;;11.60;;
17890;SDS011;9071;48.220;14.480;2023-05-08T06:59:59;15.13;;;11.23;;
17890;SDS011;9071;48.220;14.480;2023-05-08T07:05:01;13.97;;;11.00;;
17890;SDS011;9071;48.220;14.480;2023-05-08T07:10:05;15.13;;;11.93;;
17890;SDS011;9071;48.220;14.480;2023-05-08T07:15:08;15.17;;;11.90;;
17890;SDS011;9071;48.220;14.480;2023-05-08T07:20:11;17.77;;;13.07;;
17890;SDS011;9071;48.220;14.480;2023-05-08T07:25:14;17.63;;;12.47;;
17890;SDS011;9071;48.220;14.480;2023-05-08T07:30:17;18.10;;;13.03;;
17890;SDS011;9071;48.220;14.480;2023-05-08T07:35:19;21.97;;;14.40;;
17890;SDS011;9071;48.220;14.480;2023-05-08T07:40:22;16.60;;;12.77;;
17890;SDS011;9071;48.220;14.480;2023-05-08T07:45:24;18.97;;;12.77;;
17890;SDS011;9071;48.220;14.480;2023-05-08T07:50:27;16.90;;;12.27;;
17890;SDS011;9071;48.220;14.480;2023-05-08T07:55:30;16.93;;;13.23;;
17890;SDS011;9071;48.220;14.480;2023-05-08T08:00:32;17.23;;;13.07;;
17890;SDS011;9071;48.220;14.480;2023-05-08T08:05:35;14.23;;;11.67;;
17890;SDS011;9071;48.220;14.480;2023-05-08T08:10:40;18.77;;;11.97;;
17890;SDS011;9071;48.220;14.480;2023-05-08T08:15:42;14.83;;;11.50;;
17890;SDS011;9071;48.220;14.480;2023-05-08T08:20:44;15.47;;;12.13;;
17890;SDS011;9071;48.220;14.480;2023-05-08T08:25:47;15.23;;;11.73;;
17890;SDS011;9071;48.220;14.480;2023-05-08T08:30:50;16.00;;;12.10;;
17890;SDS011;9071;48.220;14.480;2023-05-08T08:35:52;16.00;;;11.43;;
17890;SDS011;9071;48.220;14.480;2023-05-08T08:40:56;17.57;;;12.50;;
17890;SDS011;9071;48.220;14.480;2023-05-08T08:45:58;18.43;;;12.30;;
17890;SDS011;9071;48.220;14.480;2023-05-08T08:51:01;14.23;;;11.73;;
17890;SDS011;9071;48.220;14.480;2023-05-08T08:56:07;15.90;;;12.37;;
17890;SDS011;9071;48.220;14.480;2023-05-08T09:01:12;18.37;;;12.77;;
17890;SDS011;9071;48.220;14.480;2023-05-08T09:06:17;16.43;;;13.07;;
17890;SDS011;9071;48.220;14.480;2023-05-08T09:11:21;15.67;;;12.97;;
17890;SDS011;9071;48.220;14.480;2023-05-08T09:16:23;18.03;;;13.47;;
17890;SDS011;9071;48.220;14.480;2023-05-08T09:21:28;16.33;;;13.60;;
17890;SDS011;9071;48.220;14.480;2023-05-08T09:26:33;18.43;;;14.37;;
17890;SDS011;9071;48.220;14.480;2023-05-08T09:31:37;16.33;;;13.80;;
17890;SDS011;9071;48.220;14.480;2023-05-08T09:36:39;17.23;;;14.13;;
17890;SDS011;9071;48.220;14.480;2023-05-08T09:41:49;17.13;;;13.70;;
17890;SDS011;9071;48.220;14.480;2023-05-08T09:47:08;17.20;;;12.90;;
17890;SDS011;9071;48.220;14.480;2023-05-08T09:52:12;18.70;;;13.47;;
17890;SDS011;9071;48.220;14.480;2023-05-08T09:57:17;20.67;;;14.00;;
17890;SDS011;9071;48.220;14.480;2023-05-08T10:02:19;16.33;;;13.47;;
17890;SDS011;9071;48.220;14.480;2023-05-08T10:07:26;18.77;;;14.93;;
17890;SDS011;9071;48.220;14.480;2023-05-08T10:12:30;17.73;;;13.37;;
17890;SDS011;9071;48.220;14.480;2023-05-08T10:17:35;17.10;;;14.27;;
17890;SDS011;9071;48.220;14.480;2023-05-08T10:22:42;20.10;;;14.67;;
17890;SDS011;9071;48.220;14.480;2023-05-08T10:27:47;15.70;;;13.67;;
17890;SDS011;9071;48.220;14.480;2023-05-08T10:32:56;20.03;;;14.67;;
17890;SDS011;9071;48.220;14.480;2023-05-08T10:38:01;18.63;;;13.93;;
17890;SDS011;9071;48.220;14.480;2023-05-08T10:43:06;17.93;;;14.60;;
17890;SDS011;9071;48.220;14.480;2023-05-08T10:48:14;17.30;;;13.77;;
17890;SDS011;9071;48.220;14.480;2023-05-08T10:53:28;17.17;;;13.77;;
17890;SDS011;9071;48.220;14.480;2023-05-08T10:58:37;18.13;;;13.73;;
17890;SDS011;9071;48.220;14.480;2023-05-08T11:03:40;18.33;;;14.47;;
17890;SDS011;9071;48.220;14.480;2023-05-08T11:08:50;19.33;;;15.03;;
17890;SDS011;9071;48.220;14.480;2023-05-08T11:13:57;19.00;;;14.90;;
17890;SDS011;9071;48.220;14.480;2023-05-08T11:19:14;18.37;;;13.93;;
17890;SDS011;9071;48.220;14.480;2023-05-08T11:24:16;18.67;;;14.30;;
17890;SDS011;9071;48.220;14.480;2023-05-08T11:29:20;20.30;;;14.53;;
17890;SDS011;9071;48.220;14.480;2023-05-08T11:39:45;16.80;;;13.67;;
17890;SDS011;9071;48.220;14.480;2023-05-08T11:44:49;17.93;;;14.13;;
17890;SDS011;9071;48.220;14.480;2023-05-08T11:50:03;17.20;;;13.73;;
17890;SDS011;9071;48.220;14.480;2023-05-08T11:55:07;19.03;;;14.57;;
17890;SDS011;9071;48.220;14.480;2023-05-08T12:00:12;17.00;;;13.20;;
17890;SDS011;9071;48.220;14.480;2023-05-08T12:05:15;16.50;;;13.48;;
17890;SDS011;9071;48.220;14.480;2023-05-08T12:10:27;22.27;;;14.07;;
17890;SDS011;9071;48.220;14.480;2023-05-08T12:15:31;17.30;;;13.63;;
17890;SDS011;9071;48.220;14.480;2023-05-08T12:20:34;18.73;;;14.27;;
17890;SDS011;9071;48.220;14.480;2023-05-08T12:25:36;17.20;;;13.67;;
17890;SDS011;9071;48.220;14.480;2023-05-08T12:30:40;16.95;;;13.38;;
17890;SDS011;9071;48.220;14.480;2023-05-08T12:35:42;15.43;;;13.50;;
17890;SDS011;9071;48.220;14.480;2023-05-08T12:40:45;17.65;;;13.18;;
17890;SDS011;9071;48.220;14.480;2023-05-08T12:45:53;14.75;;;13.00;;
17890;SDS011;9071;48.220;14.480;2023-05-08T12:50:59;16.92;;;13.30;;
17890;SDS011;9071;48.220;14.480;2023-05-08T12:56:03;15.95;;;13.45;;
17890;SDS011;9071;48.220;14.480;2023-05-08T13:01:08;17.10;;;12.00;;
17890;SDS011;9071;48.220;14.480;2023-05-08T13:06:18;15.00;;;12.65;;
17890;SDS011;9071;48.220;14.480;2023-05-08T13:11:27;16.23;;;13.07;;
17890;SDS011;9071;48.220;14.480;2023-05-08T13:16:31;16.83;;;12.40;;
17890;SDS011;9071;48.220;14.480;2023-05-08T13:21:42;13.88;;;11.98;;
17890;SDS011;9071;48.220;14.480;2023-05-08T13:26:46;14.88;;;13.23;;
17890;SDS011;9071;48.220;14.480;2023-05-08T13:31:50;15.70;;;13.20;;
17890;SDS011;9071;48.220;14.480;2023-05-08T13:36:52;16.60;;;11.65;;
17890;SDS011;9071;48.220;14.480;2023-05-08T13:41:54;14.77;;;12.63;;
17890;SDS011;9071;48.220;14.480;2023-05-08T13:46:58;16.35;;;13.38;;
17890;SDS011;9071;48.220;14.480;2023-05-08T13:52:00;15.75;;;12.38;;
17890;SDS011;9071;48.220;14.480;2023-05-08T13:57:02;15.93;;;12.68;;
17890;SDS011;9071;48.220;14.480;2023-05-08T14:02:06;14.90;;;12.25;;
17890;SDS011;9071;48.220;14.480;2023-05-08T14:07:08;16.05;;;13.50;;
17890;SDS011;9071;48.220;14.480;2023-05-08T14:12:10;14.95;;;12.50;;
17890;SDS011;9071;48.220;14.480;2023-05-08T14:17:14;13.52;;;12.13;;
17890;SDS011;9071;48.220;14.480;2023-05-08T14:22:16;14.05;;;12.27;;
17890;SDS011;9071;48.220;14.480;2023-05-08T14:27:19;13.90;;;11.93;;
17890;SDS011;9071;48.220;14.480;2023-05-08T14:32:22;15.20;;;13.10;;
17890;SDS011;9071;48.220;14.480;2023-05-08T14:37:24;18.00;;;12.25;;
17890;SDS011;9071;48.220;14.480;2023-05-08T14:42:26;14.70;;;12.15;;
17890;SDS011;9071;48.220;14.480;2023-05-08T14:47:30;14.00;;;11.85;;
17890;SDS011;9071;48.220;14.480;2023-05-08T14:52:32;14.82;;;10.98;;
17890;SDS011;9071;48.220;14.480;2023-05-08T14:57:35;13.65;;;11.43;;
17890;SDS011;9071;48.220;14.480;2023-05-08T15:02:38;14.27;;;11.05;;
17890;SDS011;9071;48.220;14.480;2023-05-08T15:07:40;15.25;;;11.20;;
17890;SDS011;9071;48.220;14.480;2023-05-08T15:12:42;14.75;;;11.40;;
17890;SDS011;9071;48.220;14.480;2023-05-08T15:17:46;12.98;;;11.05;;
17890;SDS011;9071;48.220;14.480;2023-05-08T15:22:48;13.73;;;11.45;;
17890;SDS011;9071;48.220;14.480;2023-05-08T15:27:50;12.90;;;10.77;;
17890;SDS011;9071;48.220;14.480;2023-05-08T15:32:54;13.30;;;11.10;;
17890;SDS011;9071;48.220;14.480;2023-05-08T15:37:56;13.13;;;10.07;;
17890;SDS011;9071;48.220;14.480;2023-05-08T15:43:03;12.85;;;10.27;;
17890;SDS011;9071;48.220;14.480;2023-05-08T15:48:07;11.38;;;9.52;;
17890;SDS011;9071;48.220;14.480;2023-05-08T15:53:09;15.38;;;10.70;;
17890;SDS011;9071;48.220;14.480;2023-05-08T15:58:11;11.75;;;9.32;;
17890;SDS011;9071;48.220;14.480;2023-05-08T16:03:14;14.07;;;10.40;;
17890;SDS011;9071;48.220;14.480;2023-05-08T16:08:16;10.68;;;8.88;;
17890;SDS011;9071;48.220;14.480;2023-05-08T16:13:18;11.27;;;8.23;;
17890;SDS011;9071;48.220;14.480;2023-05-08T16:18:22;12.30;;;8.98;;
17890;SDS011;9071;48.220;14.480;2023-05-08T16:23:24;12.13;;;9.13;;
17890;SDS011;9071;48.220;14.480;2023-05-08T16:28:26;10.77;;;8.57;;
17890;SDS011;9071;48.220;14.480;2023-05-08T16:33:30;9.32;;;7.95;;
17890;SDS011;9071;48.220;14.480;2023-05-08T16:38:32;8.85;;;7.55;;
17890;SDS011;9071;48.220;14.480;2023-05-08T16:43:34;9.73;;;7.93;;
17890;SDS011;9071;48.220;14.480;2023-05-08T16:48:37;8.95;;;7.45;;
17890;SDS011;9071;48.220;14.480;2023-05-08T16:53:41;9.95;;;8.00;;
17890;SDS011;9071;48.220;14.480;2023-05-08T16:58:43;12.32;;;7.90;;
17890;SDS011;9071;48.220;14.480;2023-05-08T17:03:46;7.10;;;6.28;;
17890;SDS011;9071;48.220;14.480;2023-05-08T17:08:49;6.03;;;5.43;;
17890;SDS011;9071;48.220;14.480;2023-05-08T17:13:51;7.27;;;5.37;;
17890;SDS011;9071;48.220;14.480;2023-05-08T17:18:54;5.05;;;4.55;;
17890;SDS011;9071;48.220;14.480;2023-05-08T17:23:57;6.20;;;4.38;;
17890;SDS011;9071;48.220;14.480;2023-05-08T17:29:00;4.45;;;4.05;;
17890;SDS011;9071;48.220;14.480;2023-05-08T17:34:03;5.13;;;4.27;;
17890;SDS011;9071;48.220;14.480;2023-05-08T17:39:06;5.07;;;4.25;;
17890;SDS011;9071;48.220;14.480;2023-05-08T17:44:08;5.73;;;4.00;;
17890;SDS011;9071;48.220;14.480;2023-05-08T17:49:11;5.40;;;4.60;;
17890;SDS011;9071;48.220;14.480;2023-05-08T17:54:14;7.73;;;4.23;;
17890;SDS011;9071;48.220;14.480;2023-05-08T17:59:16;4.93;;;3.47;;
17890;SDS011;9071;48.220;14.480;2023-05-08T18:04:20;3.93;;;3.40;;
17890;SDS011;9071;48.220;14.480;2023-05-08T18:09:22;4.67;;;3.63;;
17890;SDS011;9071;48.220;14.480;2023-05-08T18:14:24;5.13;;;3.23;;
17890;SDS011;9071;48.220;14.480;2023-05-08T18:19:30;3.43;;;3.13;;
17890;SDS011;9071;48.220;14.480;2023-05-08T18:24:32;7.07;;;3.13;;
17890;SDS011;9071;48.220;14.480;2023-05-08T18:29:35;5.07;;;3.17;;
17890;SDS011;9071;48.220;14.480;2023-05-08T18:34:38;5.33;;;3.20;;
17890;SDS011;9071;48.220;14.480;2023-05-08T18:39:40;5.50;;;3.23;;
17890;SDS011;9071;48.220;14.480;2023-05-08T18:44:42;3.53;;;2.83;;
17890;SDS011;9071;48.220;14.480;2023-05-08T18:49:46;5.10;;;3.23;;
17890;SDS011;9071;48.220;14.480;2023-05-08T18:54:48;4.80;;;3.27;;
17890;SDS011;9071;48.220;14.480;2023-05-08T18:59:50;4.27;;;3.03;;
17890;SDS011;9071;48.220;14.480;2023-05-08T19:04:53;7.03;;;3.20;;
17890;SDS011;9071;48.220;14.480;2023-05-08T19:09:55;4.03;;;3.57;;
17890;SDS011;9071;48.220;14.480;2023-05-08T19:14:57;5.37;;;3.80;;
17890;SDS011;9071;48.220;14.480;2023-05-08T19:20:01;5.90;;;3.50;;
17890;SDS011;9071;48.220;14.480;2023-05-08T19:25:03;5.33;;;4.03;;
17890;SDS011;9071;48.220;14.480;2023-05-08T19:30:06;5.60;;;3.93;;
17890;SDS011;9071;48.220;14.480;2023-05-08T19:35:11;7.17;;;4.03;;
17890;SDS011;9071;48.220;14.480;2023-05-08T19:40:13;6.30;;;3.83;;
17890;SDS011;9071;48.220;14.480;2023-05-08T19:45:15;4.40;;;3.33;;
17890;SDS011;9071;48.220;14.480;2023-05-08T19:50:19;3.40;;;3.10;;
17890;SDS011;9071;48.220;14.480;2023-05-08T19:55:21;5.00;;;3.27;;
17890;SDS011;9071;48.220;14.480;2023-05-08T20:00:23;7.07;;;4.10;;
17890;SDS011;9071;48.220;14.480;2023-05-08T20:05:27;6.20;;;3.97;;
17890;SDS011;9071;48.220;14.480;2023-05-08T20:10:29;4.00;;;3.30;;
17890;SDS011;9071;48.220;14.480;2023-05-08T20:15:31;4.93;;;3.17;;
17890;SDS011;9071;48.220;14.480;2023-05-08T20:20:34;6.47;;;3.03;;
17890;SDS011;9071;48.220;14.480;2023-05-08T20:25:36;6.83;;;3.10;;
17890;SDS011;9071;48.220;14.480;2023-05-08T20:30:39;7.90;;;3.80;;
17890;SDS011;9071;48.220;14.480;2023-05-08T20:35:42;6.47;;;3.37;;
17890;SDS011;9071;48.220;14.480;2023-05-08T20:40:44;6.47;;;3.50;;
17890;SDS011;9071;48.220;14.480;2023-05-08T20:45:47;8.13;;;4.07;;
17890;SDS011;9071;48.220;14.480;2023-05-08T20:50:50;7.90;;;4.30;;
17890;SDS011;9071;48.220;14.480;2023-05-08T20:55:58;4.53;;;3.83;;
17890;SDS011;9071;48.220;14.480;2023-05-08T21:01:00;8.43;;;3.93;;
17890;SDS011;9071;48.220;14.480;2023-05-08T21:06:04;6.67;;;4.07;;
17890;SDS011;9071;48.220;14.480;2023-05-08T21:11:06;5.30;;;4.50;;
17890;SDS011;9071;48.220;14.480;2023-05-08T21:16:08;6.47;;;5.50;;
17890;SDS011;9071;48.220;14.480;2023-05-08T21:21:15;6.07;;;5.23;;
17890;SDS011;9071;48.220;14.480;2023-05-08T21:26:19;6.13;;;5.00;;
17890;SDS011;9071;48.220;14.480;2023-05-08T21:31:22;6.10;;;4.77;;
17890;SDS011;9071;48.220;14.480;2023-05-08T21:36:26;7.03;;;5.17;;
17890;SDS011;9071;48.220;14.480;2023-05-08T21:41:28;7.63;;;5.30;;
17890;SDS011;9071;48.220;14.480;2023-05-08T21:46:32;10.77;;;6.10;;
17890;SDS011;9071;48.220;14.480;2023-05-08T21:51:35;12.67;;;5.70;;
17890;SDS011;9071;48.220;14.480;2023-05-08T21:56:37;7.07;;;5.00;;
17890;SDS011;9071;48.220;14.480;2023-05-08T22:01:39;6.20;;;4.80;;
17890;SDS011;9071;48.220;14.480;2023-05-08T22:06:43;10.40;;;5.40;;
17890;SDS011;9071;48.220;14.480;2023-05-08T22:11:45;13.77;;;5.20;;
17890;SDS011;9071;48.220;14.480;2023-05-08T22:16:47;7.77;;;5.27;;
17890;SDS011;9071;48.220;14.480;2023-05-08T22:21:51;12.03;;;5.83;;
17890;SDS011;9071;48.220;14.480;2023-05-08T22:26:53;6.47;;;4.20;;
17890;SDS011;9071;48.220;14.480;2023-05-08T22:31:55;6.40;;;4.50;;
17890;SDS011;9071;48.220;14.480;2023-05-08T22:36:58;7.83;;;4.93;;
17890;SDS011;9071;48.220;14.480;2023-05-08T22:42:00;6.80;;;4.77;;
17890;SDS011;9071;48.220;14.480;2023-05-08T22:47:03;6.17;;;4.67;;
17890;SDS011;9071;48.220;14.480;2023-05-08T22:52:07;7.10;;;4.50;;
17890;SDS011;9071;48.220;14.480;2023-05-08T22:57:09;5.27;;;3.90;;
17890;SDS011;9071;48.220;14.480;2023-05-08T23:02:13;9.70;;;3.50;;
17890;SDS011;9071;48.220;14.480;2023-05-08T23:07:16;5.30;;;3.63;;
17890;SDS011;9071;48.220;14.480;2023-05-08T23:12:18;6.33;;;3.77;;
17890;SDS011;9071;48.220;14.480;2023-05-08T23:17:21;5.33;;;3.50;;
17890;SDS011;9071;48.220;14.480;2023-05-08T23:22:24;7.77;;;4.27;;
17890;SDS011;9071;48.220;14.480;2023-05-08T23:27:27;6.07;;;4.00;;
17890;SDS011;9071;48.220;14.480;2023-05-08T23:32:29;6.80;;;4.03;;
17890;SDS011;9071;48.220;14.480;2023-05-08T23:37:33;7.57;;;3.90;;
17890;SDS011;9071;48.220;14.480;2023-05-08T23:42:35;6.60;;;3.60;;
17890;SDS011;9071;48.220;14.480;2023-05-08T23:47:38;6.43;;;4.00;;
17890;SDS011;9071;48.220;14.480;2023-05-08T23:52:42;6.97;;;3.93;;
17890;SDS011;9071;48.220;14.480;2023-05-08T23:57:44;5.20;;;3.57;;
